sensor_id;sensor_type;location;lat;lon;timestamp;pressure;altitude;pressure_sealevel;temperature;humidity
35676;BME280;21790;42.668;23.298;2023-02-19T00:01:16;94966.34;;;14.53;34.62
35676;BME280;21790;42.668;23.298;2023-02-19T00:03:47;94962.47;;;14.94;33.61
35676;BME280;21790;42.668;23.298;2023-02-19T00:06:13;94965.00;;;14.63;34.78
35676;BME280;21790;42.668;23.298;2023-02-19T00:08:39;94969.91;;;14.53;34.80
35676;BME280;21790;42.668;23.298;2023-02-19T00:11:07;94954.34;;;14.76;34.50
35676;BME280;21790;42.668;23.298;2023-02-19T00:13:37;94954.69;;;14.84;34.53
35676;BME280;21790;42.668;23.298;2023-02-19T00:16:13;94949.91;;;14.84;34.50
35676;BME280;21790;42.668;23.298;2023-02-19T00:18:39;94964.47;;;13.91;35.91
35676;BME280;21790;42.668;23.298;2023-02-19T00:21:05;94955.22;;;14.23;35.02
35676;BME280;21790;42.668;23.298;2023-02-19T00:23:31;94956.38;;;14.32;35.03
35676;BME280;21790;42.668;23.298;2023-02-19T00:26:01;94954.47;;;14.52;34.93
35676;BME280;21790;42.668;23.298;2023-02-19T00:28:27;94933.28;;;14.55;34.78
35676;BME280;21790;42.668;23.298;2023-02-19T00:30:52;94946.78;;;14.77;34.54
35676;BME280;21790;42.668;23.298;2023-02-19T00:33:18;94942.78;;;14.98;34.06
35676;BME280;21790;42.668;23.298;2023-02-19T00:35:43;94945.47;;;14.92;34.01
35676;BME280;21790;42.668;23.298;2023-02-19T00:38:08;94925.41;;;14.53;34.76
35676;BME280;21790;42.668;23.298;2023-02-19T00:40:34;94941.88;;;14.72;34.62
35676;BME280;21790;42.668;23.298;2023-02-19T00:42:59;94936.41;;;14.62;34.88
35676;BME280;21790;42.668;23.298;2023-02-19T00:45:25;94936.56;;;14.39;35.32
35676;BME280;21790;42.668;23.298;2023-02-19T00:47:51;94930.78;;;14.28;35.47
35676;BME280;21790;42.668;23.298;2023-02-19T00:50:17;94920.06;;;14.06;35.82
35676;BME280;21790;42.668;23.298;2023-02-19T00:52:42;94913.91;;;13.87;36.23
35676;BME280;21790;42.668;23.298;2023-02-19T00:55:08;94922.13;;;13.81;36.25
35676;BME280;21790;42.668;23.298;2023-02-19T00:57:33;94916.78;;;14.07;35.63
35676;BME280;21790;42.668;23.298;2023-02-19T00:59:59;94915.94;;;14.16;35.47
35676;BME280;21790;42.668;23.298;2023-02-19T01:02:25;94909.66;;;13.62;36.37
35676;BME280;21790;42.668;23.298;2023-02-19T01:04:51;94923.19;;;13.99;35.82
35676;BME280;21790;42.668;23.298;2023-02-19T01:07:17;94902.31;;;13.74;36.18
35676;BME280;21790;42.668;23.298;2023-02-19T01:09:46;94911.22;;;14.51;34.97
35676;BME280;21790;42.668;23.298;2023-02-19T01:12:11;94917.25;;;14.20;35.49
35676;BME280;21790;42.668;23.298;2023-02-19T01:14:37;94910.19;;;14.34;35.14
35676;BME280;21790;42.668;23.298;2023-02-19T01:17:03;94894.69;;;14.62;34.54
35676;BME280;21790;42.668;23.298;2023-02-19T01:19:28;94907.00;;;14.56;34.73
35676;BME280;21790;42.668;23.298;2023-02-19T01:21:55;94906.44;;;14.37;35.29
35676;BME280;21790;42.668;23.298;2023-02-19T01:24:20;94909.97;;;14.52;34.75
35676;BME280;21790;42.668;23.298;2023-02-19T01:26:46;94912.75;;;14.67;34.37
35676;BME280;21790;42.668;23.298;2023-02-19T01:29:11;94931.75;;;14.54;34.61
35676;BME280;21790;42.668;23.298;2023-02-19T01:31:38;94913.72;;;14.49;34.75
35676;BME280;21790;42.668;23.298;2023-02-19T01:34:04;94920.31;;;14.67;34.42
35676;BME280;21790;42.668;23.298;2023-02-19T01:36:32;94924.69;;;14.88;34.24
35676;BME280;21790;42.668;23.298;2023-02-19T01:39:02;94947.78;;;14.94;34.05
35676;BME280;21790;42.668;23.298;2023-02-19T01:41:30;94942.06;;;14.68;34.57
35676;BME280;21790;42.668;23.298;2023-02-19T01:44:07;94954.47;;;14.52;34.94
35676;BME280;21790;42.668;23.298;2023-02-19T01:46:36;94946.72;;;14.42;35.08
35676;BME280;21790;42.668;23.298;2023-02-19T01:49:24;94961.84;;;14.41;35.16
35676;BME280;21790;42.668;23.298;2023-02-19T01:52:02;94981.84;;;14.30;35.14
35676;BME280;21790;42.668;23.298;2023-02-19T01:54:32;94961.25;;;14.22;35.49
35676;BME280;21790;42.668;23.298;2023-02-19T01:57:03;94962.25;;;14.48;34.98
35676;BME280;21790;42.668;23.298;2023-02-19T01:59:32;94976.25;;;14.39;34.92
35676;BME280;21790;42.668;23.298;2023-02-19T02:01:58;94964.16;;;14.42;35.46
35676;BME280;21790;42.668;23.298;2023-02-19T02:04:24;94960.19;;;13.90;35.79
35676;BME280;21790;42.668;23.298;2023-02-19T02:06:52;94949.94;;;14.11;35.73
35676;BME280;21790;42.668;23.298;2023-02-19T02:09:21;94939.97;;;14.19;35.07
35676;BME280;21790;42.668;23.298;2023-02-19T02:12:06;94953.19;;;14.24;35.19
35676;BME280;21790;42.668;23.298;2023-02-19T02:14:36;94942.47;;;14.61;34.81
35676;BME280;21790;42.668;23.298;2023-02-19T02:17:29;94945.53;;;14.78;34.11
35676;BME280;21790;42.668;23.298;2023-02-19T02:20:00;94944.66;;;15.06;33.71
35676;BME280;21790;42.668;23.298;2023-02-19T02:25:40;94959.19;;;14.96;34.00
35676;BME280;21790;42.668;23.298;2023-02-19T02:31:12;94956.56;;;15.07;33.64
35676;BME280;21790;42.668;23.298;2023-02-19T02:36:22;94960.81;;;15.02;33.62
35676;BME280;21790;42.668;23.298;2023-02-19T02:38:50;94973.44;;;14.83;33.77
35676;BME280;21790;42.668;23.298;2023-02-19T02:41:18;94962.81;;;14.52;34.43
35676;BME280;21790;42.668;23.298;2023-02-19T02:43:44;94964.22;;;14.62;34.25
35676;BME280;21790;42.668;23.298;2023-02-19T02:46:11;94965.13;;;14.39;34.73
35676;BME280;21790;42.668;23.298;2023-02-19T02:48:45;94970.28;;;14.17;34.95
35676;BME280;21790;42.668;23.298;2023-02-19T02:53:58;94967.66;;;13.99;35.58
35676;BME280;21790;42.668;23.298;2023-02-19T02:56:47;94962.66;;;14.03;35.24
35676;BME280;21790;42.668;23.298;2023-02-19T02:59:17;94950.72;;;14.11;35.08
35676;BME280;21790;42.668;23.298;2023-02-19T03:01:56;94952.81;;;14.31;35.21
35676;BME280;21790;42.668;23.298;2023-02-19T03:04:56;94961.94;;;14.17;35.37
35676;BME280;21790;42.668;23.298;2023-02-19T03:07:42;94964.88;;;14.13;35.13
35676;BME280;21790;42.668;23.298;2023-02-19T03:10:15;94955.97;;;14.09;35.46
35676;BME280;21790;42.668;23.298;2023-02-19T03:12:43;94969.88;;;14.09;35.57
35676;BME280;21790;42.668;23.298;2023-02-19T03:15:32;94960.66;;;14.03;35.32
35676;BME280;21790;42.668;23.298;2023-02-19T03:18:18;94971.25;;;13.75;35.95
35676;BME280;21790;42.668;23.298;2023-02-19T03:21:22;94962.59;;;13.59;36.08
35676;BME280;21790;42.668;23.298;2023-02-19T03:23:48;94970.47;;;13.75;35.99
35676;BME280;21790;42.668;23.298;2023-02-19T03:26:33;94983.00;;;13.70;35.99
35676;BME280;21790;42.668;23.298;2023-02-19T03:29:02;94989.78;;;13.93;35.43
35676;BME280;21790;42.668;23.298;2023-02-19T03:32:10;94994.31;;;14.20;35.18
35676;BME280;21790;42.668;23.298;2023-02-19T03:34:41;94993.63;;;13.96;35.65
35676;BME280;21790;42.668;23.298;2023-02-19T03:37:21;95001.34;;;13.92;35.56
35676;BME280;21790;42.668;23.298;2023-02-19T03:39:51;95006.63;;;13.51;36.40
35676;BME280;21790;42.668;23.298;2023-02-19T03:42:33;95007.19;;;13.79;35.92
35676;BME280;21790;42.668;23.298;2023-02-19T03:45:04;95013.09;;;13.48;36.57
35676;BME280;21790;42.668;23.298;2023-02-19T03:47:48;95006.56;;;13.60;36.57
35676;BME280;21790;42.668;23.298;2023-02-19T03:50:45;94997.81;;;13.53;36.48
35676;BME280;21790;42.668;23.298;2023-02-19T03:53:46;95009.09;;;13.49;36.62
35676;BME280;21790;42.668;23.298;2023-02-19T03:56:28;95004.53;;;13.61;36.74
35676;BME280;21790;42.668;23.298;2023-02-19T03:59:19;95021.19;;;13.61;36.29
35676;BME280;21790;42.668;23.298;2023-02-19T04:01:59;95020.31;;;13.31;37.16
35676;BME280;21790;42.668;23.298;2023-02-19T04:04:44;95012.34;;;13.71;36.01
35676;BME280;21790;42.668;23.298;2023-02-19T04:07:15;95019.53;;;13.54;36.53
35676;BME280;21790;42.668;23.298;2023-02-19T04:09:44;95024.09;;;13.43;36.77
35676;BME280;21790;42.668;23.298;2023-02-19T04:12:12;95024.38;;;12.79;37.81
35676;BME280;21790;42.668;23.298;2023-02-19T04:14:47;95022.72;;;13.05;37.44
35676;BME280;21790;42.668;23.298;2023-02-19T04:17:22;95012.41;;;13.06;37.48
35676;BME280;21790;42.668;23.298;2023-02-19T04:19:50;95035.66;;;12.75;37.99
35676;BME280;21790;42.668;23.298;2023-02-19T04:22:18;95039.72;;;12.98;37.72
35676;BME280;21790;42.668;23.298;2023-02-19T04:24:49;95031.03;;;13.05;37.54
35676;BME280;21790;42.668;23.298;2023-02-19T04:27:15;95039.75;;;12.89;37.61
35676;BME280;21790;42.668;23.298;2023-02-19T04:29:41;95026.09;;;12.76;37.63
35676;BME280;21790;42.668;23.298;2023-02-19T04:32:09;95041.38;;;13.14;37.14
35676;BME280;21790;42.668;23.298;2023-02-19T04:34:35;95034.00;;;13.02;37.10
35676;BME280;21790;42.668;23.298;2023-02-19T04:37:01;95038.59;;;13.14;36.89
35676;BME280;21790;42.668;23.298;2023-02-19T04:39:27;95027.16;;;13.45;36.44
35676;BME280;21790;42.668;23.298;2023-02-19T04:41:52;95039.69;;;13.40;36.44
35676;BME280;21790;42.668;23.298;2023-02-19T04:44:18;95048.53;;;13.29;36.66
35676;BME280;21790;42.668;23.298;2023-02-19T04:46:43;95026.56;;;13.08;37.01
35676;BME280;21790;42.668;23.298;2023-02-19T04:49:09;95049.25;;;13.06;37.08
35676;BME280;21790;42.668;23.298;2023-02-19T04:51:34;95052.19;;;13.03;37.22
35676;BME280;21790;42.668;23.298;2023-02-19T04:54:00;95044.47;;;13.07;37.19
35676;BME280;21790;42.668;23.298;2023-02-19T04:56:25;95047.06;;;13.10;37.08
35676;BME280;21790;42.668;23.298;2023-02-19T04:58:51;95048.59;;;13.11;37.07
35676;BME280;21790;42.668;23.298;2023-02-19T05:01:16;95033.56;;;12.94;37.27
35676;BME280;21790;42.668;23.298;2023-02-19T05:03:42;95053.47;;;12.92;37.49
35676;BME280;21790;42.668;23.298;2023-02-19T05:06:10;95046.91;;;13.05;37.20
35676;BME280;21790;42.668;23.298;2023-02-19T05:08:36;95051.16;;;12.91;37.45
35676;BME280;21790;42.668;23.298;2023-02-19T05:11:04;95053.13;;;12.99;37.57
35676;BME280;21790;42.668;23.298;2023-02-19T05:13:30;95049.50;;;12.75;37.90
35676;BME280;21790;42.668;23.298;2023-02-19T05:15:57;95042.09;;;12.81;37.72
35676;BME280;21790;42.668;23.298;2023-02-19T05:18:24;95044.16;;;13.05;37.20
35676;BME280;21790;42.668;23.298;2023-02-19T05:20:50;95034.53;;;13.24;36.58
35676;BME280;21790;42.668;23.298;2023-02-19T05:23:16;95046.06;;;13.55;36.17
35676;BME280;21790;42.668;23.298;2023-02-19T05:25:42;95044.06;;;13.79;35.78
35676;BME280;21790;42.668;23.298;2023-02-19T05:28:07;95055.34;;;13.76;35.96
35676;BME280;21790;42.668;23.298;2023-02-19T05:30:50;95051.22;;;13.95;36.06
35676;BME280;21790;42.668;23.298;2023-02-19T05:33:20;95050.75;;;14.11;35.49
35676;BME280;21790;42.668;23.298;2023-02-19T05:35:48;95044.00;;;14.27;35.71
35676;BME280;21790;42.668;23.298;2023-02-19T05:38:15;95059.00;;;14.59;35.03
35676;BME280;21790;42.668;23.298;2023-02-19T05:40:42;95065.63;;;14.61;35.03
35676;BME280;21790;42.668;23.298;2023-02-19T05:43:07;95057.75;;;14.75;34.92
35676;BME280;21790;42.668;23.298;2023-02-19T05:45:34;95059.66;;;14.98;34.83
35676;BME280;21790;42.668;23.298;2023-02-19T05:47:59;95054.25;;;15.24;34.32
35676;BME280;21790;42.668;23.298;2023-02-19T05:50:26;95058.34;;;15.43;34.22
35676;BME280;21790;42.668;23.298;2023-02-19T05:52:51;95060.53;;;15.54;34.03
35676;BME280;21790;42.668;23.298;2023-02-19T05:55:17;95056.09;;;15.62;33.65
35676;BME280;21790;42.668;23.298;2023-02-19T05:57:47;95069.31;;;15.67;33.83
35676;BME280;21790;42.668;23.298;2023-02-19T06:00:16;95076.28;;;15.77;33.27
35676;BME280;21790;42.668;23.298;2023-02-19T06:02:43;95080.75;;;15.69;33.35
35676;BME280;21790;42.668;23.298;2023-02-19T06:05:09;95084.78;;;15.68;33.30
35676;BME280;21790;42.668;23.298;2023-02-19T06:07:35;95090.50;;;15.59;33.70
35676;BME280;21790;42.668;23.298;2023-02-19T06:10:04;95096.50;;;15.72;33.36
35676;BME280;21790;42.668;23.298;2023-02-19T06:12:30;95096.72;;;15.88;33.25
35676;BME280;21790;42.668;23.298;2023-02-19T06:14:55;95095.47;;;16.10;33.22
35676;BME280;21790;42.668;23.298;2023-02-19T06:17:21;95103.72;;;16.19;33.24
35676;BME280;21790;42.668;23.298;2023-02-19T06:19:46;95085.91;;;16.37;33.18
35676;BME280;21790;42.668;23.298;2023-02-19T06:22:13;95097.19;;;16.48;39.59
35676;BME280;21790;42.668;23.298;2023-02-19T06:24:39;95099.22;;;16.93;37.37
35676;BME280;21790;42.668;23.298;2023-02-19T06:27:06;95101.13;;;17.39;35.55
35676;BME280;21790;42.668;23.298;2023-02-19T06:29:32;95096.44;;;17.56;34.28
35676;BME280;21790;42.668;23.298;2023-02-19T06:31:57;95094.06;;;17.80;35.65
35676;BME280;21790;42.668;23.298;2023-02-19T06:34:23;95101.78;;;17.96;35.05
35676;BME280;21790;42.668;23.298;2023-02-19T06:36:49;95093.00;;;18.15;33.44
35676;BME280;21790;42.668;23.298;2023-02-19T06:39:15;95094.06;;;18.34;33.62
35676;BME280;21790;42.668;23.298;2023-02-19T06:41:40;95095.44;;;18.55;33.14
35676;BME280;21790;42.668;23.298;2023-02-19T06:44:06;95092.69;;;18.66;33.02
35676;BME280;21790;42.668;23.298;2023-02-19T06:46:32;95084.56;;;18.79;32.66
35676;BME280;21790;42.668;23.298;2023-02-19T06:48:58;95098.13;;;18.98;30.19
35676;BME280;21790;42.668;23.298;2023-02-19T06:51:24;95090.47;;;18.87;30.08
35676;BME280;21790;42.668;23.298;2023-02-19T06:53:52;95098.09;;;18.92;30.40
35676;BME280;21790;42.668;23.298;2023-02-19T06:58:50;95106.50;;;18.87;30.09
35676;BME280;21790;42.668;23.298;2023-02-19T07:01:15;95107.50;;;18.89;30.10
35676;BME280;21790;42.668;23.298;2023-02-19T07:03:42;95106.50;;;18.87;30.04
35676;BME280;21790;42.668;23.298;2023-02-19T07:06:07;95111.03;;;18.73;30.10
35676;BME280;21790;42.668;23.298;2023-02-19T07:08:33;95121.47;;;18.72;30.43
35676;BME280;21790;42.668;23.298;2023-02-19T07:10:58;95110.06;;;18.82;30.09
35676;BME280;21790;42.668;23.298;2023-02-19T07:13:24;95108.25;;;18.84;30.09
35676;BME280;21790;42.668;23.298;2023-02-19T07:16:01;95115.16;;;19.00;29.80
35676;BME280;21790;42.668;23.298;2023-02-19T07:18:27;95118.69;;;18.84;29.78
35676;BME280;21790;42.668;23.298;2023-02-19T07:20:53;95110.81;;;18.88;29.99
35676;BME280;21790;42.668;23.298;2023-02-19T07:23:19;95108.53;;;18.92;29.85
35676;BME280;21790;42.668;23.298;2023-02-19T07:25:44;95110.81;;;18.93;29.48
35676;BME280;21790;42.668;23.298;2023-02-19T07:28:09;95108.56;;;19.03;29.54
35676;BME280;21790;42.668;23.298;2023-02-19T07:30:35;95100.91;;;18.87;29.29
35676;BME280;21790;42.668;23.298;2023-02-19T07:33:00;95102.69;;;19.01;29.49
35676;BME280;21790;42.668;23.298;2023-02-19T07:35:27;95104.47;;;19.15;29.39
35676;BME280;21790;42.668;23.298;2023-02-19T07:37:53;95093.53;;;19.17;29.23
35676;BME280;21790;42.668;23.298;2023-02-19T07:40:18;95092.50;;;19.31;29.07
35676;BME280;21790;42.668;23.298;2023-02-19T07:42:44;95088.72;;;19.45;28.77
35676;BME280;21790;42.668;23.298;2023-02-19T07:45:09;95098.13;;;19.53;28.84
35676;BME280;21790;42.668;23.298;2023-02-19T07:47:35;95097.59;;;19.83;36.34
35676;BME280;21790;42.668;23.298;2023-02-19T07:50:00;95089.06;;;20.38;33.65
35676;BME280;21790;42.668;23.298;2023-02-19T07:52:26;95083.78;;;20.76;30.23
35676;BME280;21790;42.668;23.298;2023-02-19T07:54:52;95074.94;;;20.96;30.44
35676;BME280;21790;42.668;23.298;2023-02-19T07:57:18;95074.56;;;21.22;29.47
35676;BME280;21790;42.668;23.298;2023-02-19T07:59:43;95070.72;;;21.49;27.88
35676;BME280;21790;42.668;23.298;2023-02-19T08:02:16;95073.47;;;21.85;29.29
35676;BME280;21790;42.668;23.298;2023-02-19T08:05:01;95074.81;;;21.78;30.24
35676;BME280;21790;42.668;23.298;2023-02-19T08:07:31;95071.09;;;21.94;31.04
35676;BME280;21790;42.668;23.298;2023-02-19T08:09:57;95072.97;;;21.86;31.06
35676;BME280;21790;42.668;23.298;2023-02-19T08:12:41;95065.59;;;22.07;30.75
35676;BME280;21790;42.668;23.298;2023-02-19T08:15:25;95066.44;;;21.73;27.24
35676;BME280;21790;42.668;23.298;2023-02-19T08:17:50;95078.50;;;21.02;28.73
35676;BME280;21790;42.668;23.298;2023-02-19T08:20:16;95079.03;;;20.95;29.21
35676;BME280;21790;42.668;23.298;2023-02-19T08:22:41;95078.91;;;21.17;30.04
35676;BME280;21790;42.668;23.298;2023-02-19T08:25:07;95076.19;;;21.01;28.54
35676;BME280;21790;42.668;23.298;2023-02-19T08:27:32;95076.41;;;21.08;29.07
35676;BME280;21790;42.668;23.298;2023-02-19T08:29:58;95081.41;;;20.85;28.47
35676;BME280;21790;42.668;23.298;2023-02-19T08:32:23;95070.47;;;20.82;28.43
35676;BME280;21790;42.668;23.298;2023-02-19T08:34:49;95076.88;;;21.12;28.11
35676;BME280;21790;42.668;23.298;2023-02-19T08:37:14;95066.41;;;21.13;28.51
35676;BME280;21790;42.668;23.298;2023-02-19T08:39:40;95066.31;;;21.29;28.30
35676;BME280;21790;42.668;23.298;2023-02-19T08:42:05;95057.84;;;21.35;28.69
35676;BME280;21790;42.668;23.298;2023-02-19T08:44:31;95054.34;;;21.53;27.96
35676;BME280;21790;42.668;23.298;2023-02-19T08:46:57;95052.91;;;21.71;27.11
35676;BME280;21790;42.668;23.298;2023-02-19T08:49:26;95066.66;;;22.04;26.95
35676;BME280;21790;42.668;23.298;2023-02-19T08:51:51;95053.75;;;21.60;26.86
35676;BME280;21790;42.668;23.298;2023-02-19T08:54:17;95053.59;;;21.53;27.52
35676;BME280;21790;42.668;23.298;2023-02-19T08:56:42;95053.28;;;20.91;27.58
35676;BME280;21790;42.668;23.298;2023-02-19T08:59:10;95052.09;;;20.75;27.67
35676;BME280;21790;42.668;23.298;2023-02-19T09:01:36;95048.94;;;20.49;28.82
35676;BME280;21790;42.668;23.298;2023-02-19T09:04:11;95053.09;;;21.19;28.67
35676;BME280;21790;42.668;23.298;2023-02-19T09:06:37;95045.69;;;21.21;27.88
35676;BME280;21790;42.668;23.298;2023-02-19T09:09:03;95045.19;;;20.82;28.26
35676;BME280;21790;42.668;23.298;2023-02-19T09:11:28;95037.06;;;21.08;28.20
35676;BME280;21790;42.668;23.298;2023-02-19T09:13:55;95029.88;;;21.13;28.73
35676;BME280;21790;42.668;23.298;2023-02-19T09:16:20;95028.31;;;21.17;28.70
35676;BME280;21790;42.668;23.298;2023-02-19T09:18:46;95023.97;;;21.22;27.87
35676;BME280;21790;42.668;23.298;2023-02-19T09:21:11;95022.78;;;20.71;28.72
35676;BME280;21790;42.668;23.298;2023-02-19T09:23:37;95029.69;;;21.05;28.18
35676;BME280;21790;42.668;23.298;2023-02-19T09:26:04;95024.81;;;21.06;28.88
35676;BME280;21790;42.668;23.298;2023-02-19T09:28:31;95025.00;;;21.49;28.85
35676;BME280;21790;42.668;23.298;2023-02-19T09:31:09;95025.56;;;21.96;27.29
35676;BME280;21790;42.668;23.298;2023-02-19T09:33:35;95015.41;;;21.87;28.38
35676;BME280;21790;42.668;23.298;2023-02-19T09:36:02;95015.66;;;22.32;27.48
35676;BME280;21790;42.668;23.298;2023-02-19T09:38:28;95019.09;;;22.81;26.69
35676;BME280;21790;42.668;23.298;2023-02-19T09:40:56;95013.91;;;22.48;25.94
35676;BME280;21790;42.668;23.298;2023-02-19T09:43:23;95019.03;;;22.68;26.75
35676;BME280;21790;42.668;23.298;2023-02-19T09:46:30;95017.03;;;23.01;25.97
35676;BME280;21790;42.668;23.298;2023-02-19T09:48:48;95011.31;;;23.06;26.58
35676;BME280;21790;42.668;23.298;2023-02-19T09:51:15;95010.25;;;23.54;25.99
35676;BME280;21790;42.668;23.298;2023-02-19T09:53:45;95005.31;;;23.28;25.13
35676;BME280;21790;42.668;23.298;2023-02-19T09:56:12;95002.16;;;23.32;25.42
35676;BME280;21790;42.668;23.298;2023-02-19T09:58:49;94993.59;;;23.83;24.89
35676;BME280;21790;42.668;23.298;2023-02-19T10:01:17;94974.03;;;23.85;25.93
35676;BME280;21790;42.668;23.298;2023-02-19T10:03:45;94969.25;;;23.80;25.26
35676;BME280;21790;42.668;23.298;2023-02-19T10:06:19;94959.50;;;23.81;25.13
35676;BME280;21790;42.668;23.298;2023-02-19T10:08:47;94964.81;;;23.97;24.41
35676;BME280;21790;42.668;23.298;2023-02-19T10:11:13;94954.91;;;24.30;24.32
35676;BME280;21790;42.668;23.298;2023-02-19T10:13:43;94952.28;;;24.45;23.83
35676;BME280;21790;42.668;23.298;2023-02-19T10:16:15;94944.59;;;24.33;23.97
35676;BME280;21790;42.668;23.298;2023-02-19T10:18:43;94941.25;;;24.55;23.49
35676;BME280;21790;42.668;23.298;2023-02-19T10:21:13;94929.03;;;24.73;24.30
35676;BME280;21790;42.668;23.298;2023-02-19T10:23:40;94937.44;;;24.66;24.10
35676;BME280;21790;42.668;23.298;2023-02-19T10:26:06;94921.31;;;24.40;23.87
35676;BME280;21790;42.668;23.298;2023-02-19T10:28:33;94921.72;;;24.78;23.06
35676;BME280;21790;42.668;23.298;2023-02-19T10:31:04;94914.75;;;24.58;23.78
35676;BME280;21790;42.668;23.298;2023-02-19T10:33:31;94912.69;;;24.92;23.38
35676;BME280;21790;42.668;23.298;2023-02-19T10:36:04;94910.28;;;24.83;23.44
35676;BME280;21790;42.668;23.298;2023-02-19T10:38:36;94902.84;;;24.73;23.66
35676;BME280;21790;42.668;23.298;2023-02-19T10:41:06;94897.63;;;25.18;23.23
35676;BME280;21790;42.668;23.298;2023-02-19T10:43:37;94890.63;;;24.78;23.41
35676;BME280;21790;42.668;23.298;2023-02-19T10:46:15;94875.94;;;24.92;23.73
35676;BME280;21790;42.668;23.298;2023-02-19T10:48:49;94865.28;;;25.06;23.03
35676;BME280;21790;42.668;23.298;2023-02-19T10:51:18;94857.56;;;24.86;23.41
35676;BME280;21790;42.668;23.298;2023-02-19T10:54:01;94858.22;;;24.79;23.07
35676;BME280;21790;42.668;23.298;2023-02-19T10:56:27;94854.03;;;24.72;23.30
35676;BME280;21790;42.668;23.298;2023-02-19T10:59:33;94856.94;;;24.80;23.05
35676;BME280;21790;42.668;23.298;2023-02-19T11:01:59;94843.63;;;24.88;23.14
35676;BME280;21790;42.668;23.298;2023-02-19T11:04:31;94830.41;;;25.04;23.24
35676;BME280;21790;42.668;23.298;2023-02-19T11:07:09;94833.31;;;24.90;22.94
35676;BME280;21790;42.668;23.298;2023-02-19T11:09:43;94833.44;;;24.64;23.24
35676;BME280;21790;42.668;23.298;2023-02-19T11:12:12;94830.25;;;24.47;23.84
35676;BME280;21790;42.668;23.298;2023-02-19T11:14:41;94825.50;;;24.63;23.54
35676;BME280;21790;42.668;23.298;2023-02-19T11:17:23;94816.69;;;25.15;23.32
35676;BME280;21790;42.668;23.298;2023-02-19T11:20:14;94810.59;;;25.04;23.15
35676;BME280;21790;42.668;23.298;2023-02-19T11:22:42;94797.00;;;25.02;22.98
35676;BME280;21790;42.668;23.298;2023-02-19T11:28:09;94798.03;;;25.12;22.88
35676;BME280;21790;42.668;23.298;2023-02-19T11:30:45;94796.88;;;24.87;22.55
35676;BME280;21790;42.668;23.298;2023-02-19T11:35:50;94769.44;;;25.23;22.41
35676;BME280;21790;42.668;23.298;2023-02-19T11:38:17;94774.78;;;25.34;21.91
35676;BME280;21790;42.668;23.298;2023-02-19T11:40:51;94763.69;;;25.36;22.06
35676;BME280;21790;42.668;23.298;2023-02-19T11:48:39;94749.47;;;25.65;21.75
35676;BME280;21790;42.668;23.298;2023-02-19T11:53:58;94753.50;;;25.41;21.26
35676;BME280;21790;42.668;23.298;2023-02-19T11:56:33;94752.88;;;25.71;21.61
35676;BME280;21790;42.668;23.298;2023-02-19T11:59:08;94750.44;;;25.75;21.51
35676;BME280;21790;42.668;23.298;2023-02-19T12:04:10;94734.38;;;25.62;21.04
35676;BME280;21790;42.668;23.298;2023-02-19T12:09:31;94735.41;;;25.88;21.10
35676;BME280;21790;42.668;23.298;2023-02-19T12:17:46;94714.25;;;25.37;21.27
35676;BME280;21790;42.668;23.298;2023-02-19T12:20:26;94712.97;;;25.46;20.95
35676;BME280;21790;42.668;23.298;2023-02-19T12:29:00;94707.81;;;24.03;22.31
35676;BME280;21790;42.668;23.298;2023-02-19T12:31:39;94701.38;;;24.65;22.19
35676;BME280;21790;42.668;23.298;2023-02-19T12:39:48;94674.97;;;25.26;21.61
35676;BME280;21790;42.668;23.298;2023-02-19T12:45:07;94675.66;;;25.12;21.95
35676;BME280;21790;42.668;23.298;2023-02-19T12:47:41;94657.44;;;25.28;21.91
35676;BME280;21790;42.668;23.298;2023-02-19T12:50:20;94656.19;;;25.44;21.73
35676;BME280;21790;42.668;23.298;2023-02-19T12:52:56;94657.09;;;25.39;21.18
35676;BME280;21790;42.668;23.298;2023-02-19T12:57:53;94632.47;;;25.04;21.28
35676;BME280;21790;42.668;23.298;2023-02-19T13:00:26;94634.38;;;25.09;21.73
35676;BME280;21790;42.668;23.298;2023-02-19T13:03:15;94642.88;;;25.16;21.48
35676;BME280;21790;42.668;23.298;2023-02-19T13:05:58;94638.75;;;25.17;21.07
35676;BME280;21790;42.668;23.298;2023-02-19T13:08:30;94630.78;;;25.08;21.03
35676;BME280;21790;42.668;23.298;2023-02-19T13:11:03;94626.84;;;25.11;21.38
35676;BME280;21790;42.668;23.298;2023-02-19T13:16:00;94622.78;;;24.27;22.30
35676;BME280;21790;42.668;23.298;2023-02-19T13:18:38;94622.13;;;24.00;21.79
35676;BME280;21790;42.668;23.298;2023-02-19T13:21:05;94614.19;;;24.40;21.58
35676;BME280;21790;42.668;23.298;2023-02-19T13:23:36;94603.44;;;24.39;22.15
35676;BME280;21790;42.668;23.298;2023-02-19T13:37:19;94584.56;;;24.26;22.08
35676;BME280;21790;42.668;23.298;2023-02-19T13:39:48;94579.44;;;24.53;21.94
35676;BME280;21790;42.668;23.298;2023-02-19T13:42:26;94588.78;;;24.76;21.51
35676;BME280;21790;42.668;23.298;2023-02-19T13:44:52;94580.47;;;24.14;21.90
35676;BME280;21790;42.668;23.298;2023-02-19T13:50:26;94574.13;;;24.49;21.73
35676;BME280;21790;42.668;23.298;2023-02-19T13:52:54;94586.22;;;23.80;22.27
35676;BME280;21790;42.668;23.298;2023-02-19T13:55:45;94573.72;;;23.89;22.41
35676;BME280;21790;42.668;23.298;2023-02-19T13:58:37;94580.66;;;23.88;22.48
35676;BME280;21790;42.668;23.298;2023-02-19T14:01:09;94566.88;;;23.43;22.57
35676;BME280;21790;42.668;23.298;2023-02-19T14:06:08;94574.06;;;23.64;22.58
35676;BME280;21790;42.668;23.298;2023-02-19T14:11:12;94568.13;;;23.75;22.42
35676;BME280;21790;42.668;23.298;2023-02-19T14:16:49;94557.34;;;24.15;22.13
35676;BME280;21790;42.668;23.298;2023-02-19T14:27:42;94534.25;;;23.96;22.26
35676;BME280;21790;42.668;23.298;2023-02-19T14:30:10;94544.25;;;23.76;22.66
35676;BME280;21790;42.668;23.298;2023-02-19T14:32:38;94541.84;;;23.39;22.82
35676;BME280;21790;42.668;23.298;2023-02-19T14:35:04;94530.97;;;23.22;23.01